Terminal Aerodrome Forecast
Issued by NWS Austin/San Antonio, TX

Home | Current Version | Previous Version | Text Only | Print | Product List | Glossary On
Versions: 1 2 3 4 5 6 7 8 9 10 11 12 13 14 15 16 17 18 19 20 21 22 23 24
000
FTUS44 KEWX 250700 AAA
TAFSAT
TAF AMD
KSAT 250746Z 2508/2612 03005KT P6SM SCT050
     FM250800 VRB02KT P6SM OVC005
     FM251300 VRB03KT P6SM SCT005
     FM251800 13010KT P6SM SCT250
     FM260900 15010KT P6SM OVC015=

USA.gov is the U.S. government's official web portal to all federal, state and local government web resources and services.